createdAt,value
2022-08-14T00:02:27.880Z,100590.22
2022-08-14T00:05:01.636Z,100595.59
2022-08-14T00:07:30.437Z,100589.00
2022-08-14T00:10:49.399Z,100589.16
2022-08-14T00:12:56.432Z,100582.75
2022-08-14T00:15:29.687Z,100581.91
2022-08-14T00:18:07.008Z,100575.59
2022-08-14T00:20:43.211Z,100580.09
2022-08-14T00:23:17.194Z,100573.78
2022-08-14T00:25:58.651Z,100568.31
2022-08-14T00:28:36.928Z,100570.94
2022-08-14T00:31:08.201Z,100564.59
2022-08-14T00:33:51.009Z,100573.50
2022-08-14T00:36:39.512Z,100567.19
2022-08-14T00:39:39.569Z,100567.09
2022-08-14T00:42:21.285Z,100559.06
2022-08-14T00:45:00.519Z,100560.88
2022-08-14T00:47:33.642Z,100560.72
2022-08-14T00:50:33.204Z,100562.34
2022-08-14T00:53:10.524Z,100554.19
2022-08-14T00:55:41.396Z,100555.94
2022-08-14T00:58:33.137Z,100554.13
2022-08-14T01:01:03.755Z,100559.56
2022-08-14T01:03:39.537Z,100562.25
2022-08-14T01:06:18.815Z,100558.69
2022-08-14T01:08:58.306Z,100558.69
2022-08-14T01:11:35.540Z,100564.06
2022-08-14T01:14:25.538Z,100569.69
2022-08-14T01:16:55.536Z,100567.19
2022-08-14T01:19:44.919Z,100559.13
2022-08-14T01:22:19.211Z,100560.09
2022-08-14T01:24:50.882Z,100555.78
2022-08-14T01:27:22.424Z,100549.47
2022-08-14T01:30:00.840Z,100549.28
2022-08-14T01:32:35.622Z,100549.34
2022-08-14T01:35:19.130Z,100535.19
2022-08-14T01:38:01.653Z,100546.00
2022-08-14T01:40:40.752Z,100548.91
2022-08-14T01:43:15.728Z,100554.47
2022-08-14T01:45:48.918Z,100556.38
2022-08-14T01:48:30.464Z,100548.56
2022-08-14T01:51:02.807Z,100552.31
2022-08-14T01:53:35.667Z,100557.75
2022-08-14T01:56:11.934Z,100563.13
2022-08-14T01:58:58.177Z,100564.06
2022-08-14T02:01:27.424Z,100558.69
2022-08-14T02:04:01.883Z,100566.66
2022-08-14T02:06:37.444Z,100556.88
2022-08-14T02:09:19.309Z,100549.63
2022-08-14T02:11:54.634Z,100548.69
2022-08-14T02:14:31.446Z,100553.94
2022-08-14T02:17:01.436Z,100548.56
2022-08-14T02:19:37.815Z,100509.63
2022-08-14T02:22:06.842Z,100537.75
2022-08-14T02:24:44.990Z,100544.94
2022-08-14T02:28:24.386Z,100539.56
2022-08-14T02:30:05.245Z,100537.75
2022-08-14T02:32:37.222Z,100536.03
2022-08-14T02:35:18.569Z,100535.06
2022-08-14T02:37:49.281Z,100536.81
2022-08-14T02:40:32.410Z,100540.34
2022-08-14T02:43:07.829Z,100531.38
2022-08-14T02:45:44.557Z,100524.19
2022-08-14T02:49:03.484Z,100526.09
2022-08-14T02:51:09.126Z,100528.94
2022-08-14T02:53:45.512Z,100532.59
2022-08-14T02:56:30.224Z,100529.13
2022-08-14T02:59:10.771Z,100537.31
2022-08-14T03:01:43.468Z,100526.78
2022-08-14T03:04:20.303Z,100534.03
2022-08-14T03:07:06.788Z,100535.00
2022-08-14T03:10:27.074Z,100530.66
2022-08-14T03:12:33.400Z,100535.41
2022-08-14T03:15:16.147Z,100531.25
2022-08-14T03:17:56.605Z,100527.38
2022-08-14T03:20:43.448Z,100525.28
2022-08-14T03:23:17.919Z,100521.72
2022-08-14T03:25:53.808Z,100527.16
2022-08-14T03:28:33.249Z,100523.47
2022-08-14T03:31:08.341Z,100525.13
2022-08-14T03:33:42.217Z,100523.38
2022-08-14T03:37:50.734Z,100522.31
2022-08-14T03:39:16.159Z,100519.56
2022-08-14T03:41:55.272Z,100519.50
2022-08-14T03:45:19.079Z,100518.63
2022-08-14T03:47:28.643Z,100511.53
2022-08-14T03:50:21.553Z,100507.91
2022-08-14T03:53:02.276Z,100514.91
2022-08-14T03:55:31.502Z,100512.06
2022-08-14T03:58:01.034Z,100516.47
2022-08-14T04:00:42.920Z,100510.06
2022-08-14T04:03:24.118Z,100500.13
2022-08-14T04:05:55.953Z,100497.47
2022-08-14T04:08:30.762Z,100502.75
2022-08-14T04:11:02.810Z,100499.78
2022-08-14T04:13:39.314Z,100499.53
2022-08-14T04:16:12.658Z,100496.59
2022-08-14T04:18:47.336Z,100501.44
2022-08-14T04:21:18.057Z,100503.75
2022-08-14T04:23:57.153Z,100504.19
2022-08-14T04:26:42.283Z,100499.34
2022-08-14T04:29:14.453Z,100501.59
2022-08-14T04:33:00.207Z,100493.28
2022-08-14T04:34:41.919Z,100404.75
2022-08-14T04:37:28.542Z,100490.16
2022-08-14T04:40:15.524Z,100482.72
2022-08-14T04:43:02.149Z,100487.69
2022-08-14T04:45:40.814Z,100487.44
2022-08-14T04:48:40.058Z,100488.09
2022-08-14T04:51:04.318Z,100487.00
2022-08-14T04:53:34.737Z,100485.56
2022-08-14T04:56:06.197Z,100438.25
2022-08-14T04:58:39.536Z,100479.75
2022-08-14T05:01:12.928Z,100478.63
2022-08-14T05:03:54.791Z,100476.31
2022-08-14T05:06:37.593Z,100475.75
2022-08-14T05:09:10.512Z,100475.00
2022-08-14T05:11:44.322Z,100469.03
2022-08-14T05:14:16.746Z,100468.69
2022-08-14T05:17:02.641Z,100459.34
2022-08-14T05:19:36.473Z,100463.28
2022-08-14T05:22:19.783Z,100458.28
2022-08-14T05:24:51.221Z,100457.13
2022-08-14T05:27:23.054Z,100461.31
2022-08-14T05:29:56.754Z,100459.41
2022-08-14T05:32:28.307Z,100461.31
2022-08-14T05:35:00.018Z,100458.72
2022-08-14T05:37:31.197Z,100457.22
2022-08-14T05:40:01.087Z,100455.78
2022-08-14T05:42:34.005Z,100462.09
2022-08-14T05:45:10.946Z,100455.78
2022-08-14T05:47:43.166Z,100455.69
2022-08-14T05:50:17.588Z,100450.00
2022-08-14T05:52:50.331Z,100454.91
2022-08-14T05:55:22.885Z,100446.31
2022-08-14T05:57:59.663Z,100444.66
2022-08-14T06:00:37.142Z,100439.16
2022-08-14T06:03:12.370Z,100436.47
2022-08-14T06:05:44.043Z,100438.50
2022-08-14T06:08:31.319Z,100440.88
2022-08-14T06:11:20.308Z,100434.81
2022-08-14T06:13:58.598Z,100432.59
2022-08-14T06:16:27.377Z,100434.75
2022-08-14T06:19:06.539Z,100428.31
2022-08-14T06:21:58.448Z,100430.03
2022-08-14T06:24:34.665Z,100427.50
2022-08-14T06:27:06.349Z,100422.66
2022-08-14T06:29:39.767Z,100419.53
2022-08-14T06:32:48.697Z,100422.97
2022-08-14T06:35:12.167Z,100415.47
2022-08-14T06:37:59.373Z,100419.88
2022-08-14T06:40:34.355Z,100422.25
2022-08-14T06:43:06.830Z,100394.69
2022-08-14T06:45:40.988Z,100422.63
2022-08-14T06:48:21.528Z,100410.97
2022-08-14T06:50:53.823Z,100415.06
2022-08-14T06:53:28.216Z,100413.75
2022-08-14T06:56:01.944Z,100411.16
2022-08-14T06:58:32.529Z,100409.63
2022-08-14T07:01:27.023Z,100409.69
2022-08-14T07:04:22.730Z,100420.47
2022-08-14T07:06:55.465Z,100414.03
2022-08-14T07:09:44.372Z,100411.69
2022-08-14T07:12:54.648Z,100407.84
2022-08-14T07:15:09.694Z,100408.28
2022-08-14T07:17:46.716Z,100405.88
2022-08-14T07:20:30.992Z,100410.00
2022-08-14T07:23:05.356Z,100402.06
2022-08-14T07:25:39.698Z,100409.31
2022-08-14T07:28:20.686Z,100410.69
2022-08-14T07:30:51.986Z,100401.97
2022-08-14T07:33:29.961Z,100403.56
2022-08-14T07:36:01.940Z,100403.75
2022-08-14T07:38:37.936Z,100404.75
2022-08-14T07:41:14.661Z,100403.19
2022-08-14T07:43:55.929Z,100400.09
2022-08-14T07:46:28.333Z,100404.78
2022-08-14T08:02:32.788Z,100390.94
2022-08-14T08:05:03.381Z,100388.50
2022-08-14T08:07:34.353Z,100387.16
2022-08-14T08:10:46.017Z,100391.22
2022-08-14T08:13:22.208Z,100344.25
2022-08-14T08:15:57.377Z,100315.28
2022-08-14T08:18:29.508Z,100383.88
2022-08-14T08:21:00.550Z,100394.94
2022-08-14T08:23:40.770Z,100374.38
2022-08-14T08:26:12.879Z,100393.91
2022-08-14T08:28:43.881Z,100387.72
2022-08-14T08:31:13.791Z,100390.81
2022-08-14T08:33:46.971Z,100387.72
2022-08-14T08:36:19.159Z,100385.69
2022-08-14T08:39:17.568Z,100357.94
2022-08-14T08:41:45.740Z,100378.78
2022-08-14T08:44:32.000Z,100379.84
2022-08-14T08:47:06.753Z,100376.13
2022-08-14T08:49:53.043Z,100373.94
2022-08-14T08:52:31.553Z,100368.75
2022-08-14T08:55:04.565Z,100364.50
2022-08-14T08:57:37.606Z,100352.69
2022-08-14T09:00:24.466Z,100358.63
2022-08-14T09:02:57.709Z,100356.97
2022-08-14T09:05:29.012Z,100353.53
2022-08-14T09:08:30.179Z,100352.53
2022-08-14T09:11:18.958Z,100325.69
2022-08-14T09:13:52.544Z,100342.91
2022-08-14T09:16:25.015Z,100334.94
2022-08-14T09:18:55.295Z,100337.66
2022-08-14T09:21:31.145Z,100333.16
2022-08-14T09:24:28.589Z,100333.31
2022-08-14T09:26:51.961Z,100329.97
2022-08-14T09:29:23.047Z,100303.91
2022-08-14T09:31:58.230Z,100329.16
2022-08-14T09:34:59.248Z,100285.50
2022-08-14T09:37:44.826Z,100310.97
2022-08-14T09:40:29.482Z,100302.09
2022-08-14T09:43:13.245Z,100274.53
2022-08-14T09:45:52.901Z,100310.47
2022-08-14T09:48:30.098Z,100289.19
2022-08-14T09:54:18.399Z,100303.84
2022-08-14T09:56:45.683Z,100301.44
2022-08-14T09:59:17.771Z,100273.28
2022-08-14T10:01:52.857Z,100299.72
2022-08-14T10:04:34.656Z,100284.88
2022-08-14T10:07:08.480Z,100285.09
2022-08-14T10:09:59.792Z,100281.25
2022-08-14T10:12:52.923Z,100216.53
2022-08-14T10:15:29.758Z,100166.09
2022-08-14T10:18:17.274Z,100263.84
2022-08-14T10:20:57.810Z,100266.22
2022-08-14T10:23:43.769Z,100140.69
2022-08-14T10:26:22.722Z,100263.78
2022-08-14T10:29:23.322Z,100255.97
2022-08-14T10:35:54.241Z,100250.19
2022-08-14T10:38:32.358Z,100246.34
2022-08-14T10:41:14.659Z,100158.59
2022-08-14T10:43:45.897Z,100260.31
2022-08-14T10:47:36.810Z,100256.03
2022-08-14T10:49:17.641Z,100227.72
2022-08-14T10:52:04.223Z,100220.78
2022-08-14T10:54:40.249Z,100231.22
2022-08-14T10:57:18.907Z,100220.41
2022-08-14T10:59:52.030Z,100204.91
2022-08-14T11:02:45.203Z,100200.56
2022-08-14T11:05:20.248Z,100154.59
2022-08-14T11:08:01.808Z,100144.59
2022-08-14T11:10:47.672Z,100187.16
2022-08-14T11:13:30.013Z,100174.19
2022-08-14T11:16:01.929Z,100182.44
2022-08-14T11:19:04.905Z,99999.94
2022-08-14T11:21:45.620Z,100090.94
2022-08-14T11:24:54.383Z,100176.06
2022-08-14T11:27:11.558Z,100166.41
2022-08-14T11:29:48.423Z,100167.97
2022-08-14T11:32:22.165Z,100173.41
2022-08-14T11:34:53.600Z,100174.25
2022-08-14T11:37:33.822Z,100171.53
2022-08-14T11:40:24.275Z,100177.53
2022-08-14T11:42:59.612Z,100174.31
2022-08-14T11:45:37.136Z,100053.50
2022-08-14T11:49:02.933Z,100141.31
2022-08-14T11:51:23.670Z,100165.53
2022-08-14T11:53:55.771Z,100165.25
2022-08-14T11:56:30.645Z,100158.34
2022-08-14T11:58:59.874Z,100166.28
2022-08-14T12:01:32.734Z,100152.28
2022-08-14T12:04:21.672Z,100167.22
2022-08-14T12:07:10.155Z,100167.78
2022-08-14T12:09:48.576Z,100161.22
2022-08-14T12:12:35.793Z,100160.72
2022-08-14T12:15:08.240Z,100152.50
2022-08-14T12:17:50.630Z,100147.44
2022-08-14T12:20:32.217Z,100147.88
2022-08-14T12:23:05.261Z,100148.25
2022-08-14T12:25:36.342Z,100098.72
2022-08-14T12:28:33.921Z,100136.75
2022-08-14T12:31:24.978Z,100128.56
2022-08-14T12:34:10.949Z,100134.53
2022-08-14T12:36:40.644Z,100138.72
2022-08-14T12:39:39.715Z,99824.38
2022-08-14T12:42:27.286Z,100117.72
2022-08-14T12:45:04.913Z,100114.66
2022-08-14T12:47:34.358Z,100108.69
2022-08-14T12:50:05.232Z,100096.59
2022-08-14T12:53:02.032Z,100060.59
2022-08-14T12:56:00.418Z,100095.63
2022-08-14T12:58:29.441Z,100103.50
2022-08-14T13:01:17.144Z,100090.53
2022-08-14T13:03:49.064Z,100090.84
2022-08-14T13:06:25.113Z,100090.03
2022-08-14T13:09:00.085Z,100092.81
2022-08-14T13:11:41.108Z,100084.38
2022-08-14T13:14:17.602Z,100086.22
2022-08-14T13:16:50.566Z,100081.75
2022-08-14T13:19:21.056Z,100073.53
2022-08-14T13:22:05.622Z,100071.50
2022-08-14T13:24:40.331Z,100055.00
2022-08-14T13:27:11.257Z,100054.31
2022-08-14T13:29:43.770Z,100051.09
2022-08-14T13:32:16.755Z,100055.59
2022-08-14T13:34:48.797Z,100043.38
2022-08-14T13:37:22.867Z,100045.41
2022-08-14T13:39:57.291Z,100042.34
2022-08-14T13:42:30.151Z,100034.75
2022-08-14T13:45:01.768Z,100032.41
2022-08-14T13:47:33.411Z,100016.91
2022-08-14T13:50:09.183Z,99971.16
2022-08-14T13:52:52.868Z,100011.97
2022-08-14T13:55:25.483Z,100015.03
2022-08-14T13:58:03.192Z,100012.94
2022-08-14T14:00:51.668Z,100011.88
2022-08-14T14:03:30.410Z,99749.63
2022-08-14T14:06:03.637Z,100001.03
2022-08-14T14:08:46.303Z,99916.94
2022-08-14T14:11:19.623Z,99996.44
2022-08-14T14:13:50.386Z,99988.56
2022-08-14T14:16:30.095Z,99988.88
2022-08-14T14:19:10.543Z,99984.41
2022-08-14T14:21:41.965Z,99986.47
2022-08-14T14:24:16.453Z,99982.88
2022-08-14T14:26:57.570Z,99975.94
2022-08-14T14:29:46.102Z,99970.84
2022-08-14T14:32:31.258Z,99975.25
2022-08-14T14:35:05.964Z,99977.69
2022-08-14T14:37:37.907Z,99967.09
2022-08-14T14:40:50.339Z,99966.56
2022-08-14T14:43:15.500Z,99956.84
2022-08-14T14:45:47.113Z,99958.25
2022-08-14T14:48:18.818Z,99954.44
2022-08-14T14:50:53.279Z,99956.13
2022-08-14T14:53:23.095Z,99946.16
2022-08-14T14:56:46.777Z,99953.25
2022-08-14T14:58:48.681Z,99942.47
2022-08-14T15:01:23.621Z,99937.53
2022-08-14T15:03:54.228Z,99923.31
2022-08-14T15:06:30.211Z,99928.72
2022-08-14T15:09:04.902Z,99925.97
2022-08-14T15:11:45.785Z,99930.53
2022-08-14T15:14:55.028Z,99933.63
2022-08-14T15:17:06.596Z,99925.97
2022-08-14T15:19:36.284Z,99933.97
2022-08-14T15:22:06.584Z,99917.78
2022-08-14T15:24:36.709Z,99919.06
2022-08-14T15:27:11.363Z,99919.97
2022-08-14T15:29:43.049Z,99920.59
2022-08-14T15:32:12.497Z,99919.63
2022-08-14T15:34:51.721Z,99921.16
2022-08-14T15:37:23.978Z,99920.34
2022-08-14T15:39:53.393Z,99919.69
2022-08-14T15:42:25.217Z,99914.03
2022-08-14T15:44:57.492Z,99906.34
2022-08-14T15:47:30.721Z,99898.38
2022-08-14T15:50:01.812Z,99900.75
2022-08-14T15:52:35.156Z,99898.03
2022-08-14T15:55:06.889Z,99900.06
2022-08-14T15:57:38.746Z,99891.19
2022-08-14T16:00:43.355Z,99882.69
2022-08-14T16:03:16.733Z,99887.28
2022-08-14T16:05:46.458Z,99885.25
2022-08-14T16:08:26.813Z,99878.25
2022-08-14T16:10:59.189Z,99878.44
2022-08-14T16:13:40.516Z,99878.56
2022-08-14T16:16:50.461Z,99876.56
2022-08-14T16:22:02.752Z,99881.81
2022-08-14T16:25:02.788Z,99876.78
2022-08-14T16:27:39.157Z,99820.63
2022-08-14T16:30:20.629Z,99827.00
2022-08-14T16:32:56.936Z,99869.00
2022-08-14T16:35:42.172Z,99838.56
2022-08-14T16:38:29.351Z,99830.44
2022-08-14T16:40:23.757Z,99791.22
2022-08-14T16:41:27.647Z,99865.59
2022-08-14T16:44:02.769Z,99879.88
2022-08-14T16:46:42.871Z,99887.59
2022-08-14T16:49:19.217Z,99835.81
2022-08-14T16:51:52.618Z,99882.84
2022-08-14T16:54:35.204Z,99875.91
2022-08-14T16:57:22.585Z,99871.91
2022-08-14T16:59:57.615Z,99862.00
2022-08-14T17:02:39.993Z,99850.88
2022-08-14T17:05:20.808Z,99839.00
2022-08-14T17:08:33.278Z,99808.63
2022-08-14T17:11:11.061Z,99837.94
2022-08-14T17:13:59.896Z,99849.34
2022-08-14T17:16:37.630Z,99856.94
2022-08-14T17:19:13.772Z,99871.28
2022-08-14T17:21:47.227Z,99854.59
2022-08-14T17:24:56.884Z,99882.72
2022-08-14T17:27:10.334Z,99883.25
2022-08-14T17:32:56.735Z,99638.44
2022-08-14T17:35:57.339Z,99890.50
2022-08-14T17:38:39.549Z,99883.09
2022-08-14T17:41:27.107Z,99888.50
2022-08-14T17:46:43.309Z,99892.16
2022-08-14T17:49:17.990Z,99887.88
2022-08-14T17:52:17.525Z,99897.59
2022-08-14T17:54:52.919Z,99895.72
2022-08-14T17:57:30.410Z,99884.59
2022-08-14T18:00:05.991Z,99890.81
2022-08-14T18:02:36.596Z,99896.38
2022-08-14T18:05:11.047Z,99897.31
2022-08-14T18:08:00.378Z,99897.03
2022-08-14T18:10:54.940Z,99889.72
2022-08-14T18:13:51.689Z,99883.97
2022-08-14T18:16:19.727Z,99890.06
2022-08-14T18:18:55.998Z,99893.66
2022-08-14T18:21:56.219Z,99899.91
2022-08-14T18:24:29.833Z,99895.28
2022-08-14T18:27:09.046Z,99901.22
2022-08-14T18:29:54.832Z,99896.09
2022-08-14T18:32:58.232Z,99900.75
2022-08-14T18:35:58.637Z,99899.03
2022-08-14T18:40:03.063Z,99765.53
2022-08-14T18:43:03.955Z,99894.06
2022-08-14T18:47:00.069Z,99891.59
2022-08-14T18:49:42.796Z,99886.00
2022-08-14T18:56:29.676Z,99891.56
2022-08-14T18:59:47.207Z,99887.44
2022-08-14T19:07:23.040Z,99662.91
2022-08-14T19:09:58.954Z,99883.75
2022-08-14T19:13:12.988Z,99892.00
2022-08-14T19:15:44.439Z,99889.69
2022-08-14T19:18:28.047Z,99889.94
2022-08-14T19:21:13.351Z,99881.97
2022-08-14T19:23:44.784Z,99876.44
2022-08-14T19:26:36.597Z,99886.00
2022-08-14T19:29:26.221Z,99882.44
2022-08-14T19:32:07.791Z,99880.00
2022-08-14T19:34:52.228Z,99684.69
2022-08-14T19:37:48.478Z,99880.00
2022-08-14T19:40:33.880Z,99868.19
2022-08-14T19:43:09.115Z,99866.56
2022-08-14T19:45:40.774Z,99867.41
2022-08-14T19:48:15.842Z,99862.63
2022-08-14T19:50:47.084Z,99865.00
2022-08-14T19:53:18.406Z,99865.53
2022-08-14T19:56:01.496Z,99864.34
2022-08-14T19:58:55.361Z,99865.56
2022-08-14T20:01:37.629Z,99870.28
2022-08-14T20:04:45.251Z,99866.50
2022-08-14T20:07:00.298Z,99867.97
2022-08-14T20:11:06.964Z,99853.28
2022-08-14T20:12:34.905Z,99856.50
2022-08-14T20:15:15.479Z,99856.97
2022-08-14T20:17:53.467Z,99863.97
2022-08-14T20:20:32.449Z,99677.66
2022-08-14T20:23:10.775Z,99863.53
2022-08-14T20:26:10.366Z,99877.75
2022-08-14T20:28:57.940Z,99867.69
2022-08-14T20:32:07.053Z,99865.72
2022-08-14T20:34:50.985Z,99867.44
2022-08-14T20:37:22.728Z,99866.44
2022-08-14T20:39:54.774Z,99870.56
2022-08-14T20:42:43.649Z,99868.59
2022-08-14T20:45:24.729Z,99868.22
2022-08-14T20:48:01.137Z,99866.13
2022-08-14T20:50:32.399Z,99867.97
2022-08-14T20:53:05.666Z,99866.34
2022-08-14T20:55:45.285Z,99864.25
2022-08-14T20:58:38.492Z,99859.47
2022-08-14T21:01:35.996Z,99865.31
2022-08-14T21:04:32.656Z,99863.94
2022-08-14T21:07:26.215Z,99866.88
2022-08-14T21:10:33.442Z,99858.31
2022-08-14T21:13:27.221Z,99863.31
2022-08-14T21:15:57.588Z,99850.44
2022-08-14T21:18:32.402Z,99852.44
2022-08-14T21:21:07.672Z,99842.88
2022-08-14T21:23:58.038Z,99800.72
2022-08-14T21:26:52.657Z,99845.06
2022-08-14T21:29:31.470Z,99839.81
2022-08-14T21:32:02.003Z,99837.97
2022-08-14T21:34:55.016Z,99830.16
2022-08-14T21:37:24.661Z,99842.84
2022-08-14T21:40:00.587Z,99832.94
2022-08-14T21:42:29.791Z,99829.69
2022-08-14T21:44:58.713Z,99821.72
2022-08-14T21:47:27.815Z,99827.31
2022-08-14T21:50:00.261Z,99821.34
2022-08-14T21:52:52.225Z,99825.00
2022-08-14T21:55:23.620Z,99805.25
2022-08-14T21:58:45.993Z,99824.03
2022-08-14T22:00:43.334Z,99718.16
2022-08-14T22:03:19.554Z,99702.06
2022-08-14T22:05:57.114Z,99812.03
2022-08-14T22:08:27.314Z,99818.16
2022-08-14T22:10:57.528Z,99811.44
2022-08-14T22:13:32.157Z,99813.59
2022-08-14T22:16:02.620Z,99822.88
2022-08-14T22:18:32.372Z,99825.28
2022-08-14T22:21:05.779Z,99820.25
2022-08-14T22:23:37.131Z,99816.28
2022-08-14T22:26:07.870Z,99826.41
2022-08-14T22:28:38.434Z,99825.78
2022-08-14T22:31:23.116Z,99799.41
2022-08-14T22:33:57.839Z,99822.13
2022-08-14T22:36:47.223Z,99830.63
2022-08-14T22:39:17.213Z,99822.16
2022-08-14T22:41:56.075Z,99826.28
2022-08-14T22:44:29.211Z,99826.63
2022-08-14T22:46:58.930Z,99819.84
2022-08-14T22:50:32.357Z,99820.72
2022-08-14T22:52:32.465Z,99817.91
2022-08-14T22:55:06.006Z,99816.31
2022-08-14T22:57:37.126Z,99811.25
2022-08-14T23:00:16.325Z,99778.53
2022-08-14T23:02:46.733Z,99799.13
2022-08-14T23:05:16.126Z,99820.19
2022-08-14T23:08:44.103Z,99829.19
2022-08-14T23:10:35.960Z,99818.47
2022-08-14T23:13:08.545Z,99829.44
2022-08-14T23:15:38.433Z,99825.25
2022-08-14T23:18:13.122Z,99826.31
2022-08-14T23:21:35.882Z,99748.63
2022-08-14T23:24:17.370Z,99825.25
2022-08-14T23:26:57.980Z,99815.56
2022-08-14T23:29:27.190Z,99823.09
2022-08-14T23:32:00.482Z,99821.59
2022-08-14T23:34:30.107Z,99806.69
2022-08-14T23:37:03.812Z,99807.66
2022-08-14T23:39:35.439Z,99808.63
2022-08-14T23:42:11.614Z,99806.91
2022-08-14T23:44:45.751Z,99782.34
2022-08-14T23:47:26.874Z,99803.03
2022-08-14T23:50:03.601Z,99805.09
2022-08-14T23:52:56.203Z,99793.50
2022-08-14T23:55:34.747Z,99793.69
2022-08-14T23:58:03.925Z,99789.63
